Time;durP1;ratioP1;P1;durP2;ratioP2;P2;SDS_P1;SDS_P2;PMS_P1;PMS_P2;Temp;Humidity;BMP_temperature;BMP_pressure;BME280_temperature;BME280_humidity;BME280_pressure;Samples;Min_cycle;Max_cycle;Signal;HPM_P1;HPM_P2
2022/05/21 00:01:56;;;;;;;;;;;;;;;;;;5050248;28;1189;-81
2022/05/21 00:04:22;;;;;;;;;;;;;;;;;;5052576;28;1157;-81
2022/05/21 00:06:47;;;;;;;;;;;;;;;;;;5047455;28;1188;-81
2022/05/21 00:09:13;;;;;;;;;;;;;;;;;;5049567;28;1196;-80
2022/05/21 00:11:38;;;;;;;;;;;;;;;;;;5088727;28;1247;-81
2022/05/21 00:14:04;;;;;;;;;;;;;;;;;;5060803;28;1406;-80
2022/05/21 00:16:30;;;;;;;;;;;;;;;;;;5058034;28;1346;-80
2022/05/21 00:18:55;;;;;;;;;;;;;;;;;;5058855;28;1918;-80
2022/05/21 00:21:20;;;;;;;;;;;;;;;;;;5068553;28;1205;-81
2022/05/21 00:23:46;;;;;;;;;;;;;;;;;;5067709;28;1262;-81
2022/05/21 00:26:12;;;;;;;;;;;;;;;;;;5061710;28;1287;-81
2022/05/21 00:28:39;;;;;;;;;;;;;;;;;;5071481;28;1294;-81
2022/05/21 00:31:05;;;;;;;;;;;;;;;;;;5074378;28;1283;-81
2022/05/21 00:33:31;;;;;;;;;;;;;;;;;;5073092;28;1245;-79
2022/05/21 00:36:00;;;;;;;;;;;;;;;;;;5074270;28;1227;-81
2022/05/21 00:38:26;;;;;;;;;;;;;;;;;;5070774;28;1890;-81
2022/05/21 00:40:55;;;;;;;;;;;;;;;;;;5056019;28;1390;-80
2022/05/21 00:43:39;;;;;;;;;;;;;;;;;;5074588;28;1159;-80
2022/05/21 00:46:05;;;;;;;;;;;;;;;;;;5092547;28;1152;-82
2022/05/21 00:48:40;;;;;;;;;;;;;;;;;;5057577;28;1192;-81
2022/05/21 00:51:08;;;;;;;;;;;;;;;;;;5090299;28;1275;-82
2022/05/21 00:56:23;;;;;;;;;;;;;;;;;;5091420;28;1112;-81
2022/05/21 01:01:39;;;;;;;;;;;;;;;;;;5070217;28;1168;-80
2022/05/21 01:04:05;;;;;;;;;;;;;;;;;;5065407;28;1331;-81
2022/05/21 01:06:31;;;;;;;;;;;;;;;;;;5054588;28;1152;-80
2022/05/21 01:08:56;;;;;;;;;;;;;;;;;;5068573;28;1215;-80
2022/05/21 01:11:22;;;;;;;;;;;;;;;;;;5073745;28;1199;-80
2022/05/21 01:13:48;;;;;;;;;;;;;;;;;;5072894;28;889;-79
2022/05/21 01:16:14;;;;;;;;;;;;;;;;;;5074567;28;1289;-79
2022/05/21 01:18:40;;;;;;;;;;;;;;;;;;5089138;28;1909;-80
2022/05/21 01:21:06;;;;;;;;;;;;;;;;;;5070877;28;1215;-82
2022/05/21 01:23:37;;;;;;;;;;;;;;;;;;5068956;28;1294;-81
2022/05/21 01:26:04;;;;;;;;;;;;;;;;;;5089430;28;814;-82
2022/05/21 01:28:31;;;;;;;;;;;;;;;;;;5090382;28;1144;-81
2022/05/21 01:30:57;;;;;;;;;;;;;;;;;;5070172;28;1182;-81
2022/05/21 01:33:25;;;;;;;;;;;;;;;;;;5068635;28;1164;-81
2022/05/21 01:35:57;;;;;;;;;;;;;;;;;;5068904;28;1200;-78
2022/05/21 01:38:24;;;;;;;;;;;;;;;;;;5048619;28;1952;-80
2022/05/21 01:40:49;;;;;;;;;;;;;;;;;;5045781;28;1324;-80
2022/05/21 01:45:59;;;;;;;;;;;;;;;;;;5078342;28;1080;-80
2022/05/21 01:48:25;;;;;;;;;;;;;;;;;;5049908;28;1400;-80
2022/05/21 01:50:51;;;;;;;;;;;;;;;;;;5062630;28;1304;-81
2022/05/21 01:53:23;;;;;;;;;;;;;;;;;;5045994;28;1310;-81
2022/05/21 01:55:48;;;;;;;;;;;;;;;;;;5071263;28;1001;-80
2022/05/21 01:58:17;;;;;;;;;;;;;;;;;;5062215;28;1960;-80
2022/05/21 02:00:43;;;;;;;;;;;;;;;;;;5087051;28;1168;-80
2022/05/21 02:03:08;;;;;;;;;;;;;;;;;;5069092;28;1276;-80
2022/05/21 02:05:34;;;;;;;;;;;;;;;;;;5088589;28;1180;-80
2022/05/21 02:07:59;;;;;;;;;;;;;;;;;;5053154;28;1190;-80
2022/05/21 02:10:24;;;;;;;;;;;;;;;;;;5045340;28;1299;-80
2022/05/21 02:12:50;;;;;;;;;;;;;;;;;;5059755;28;929;-81
2022/05/21 02:15:15;;;;;;;;;;;;;;;;;;5063396;28;1374;-81
2022/05/21 02:17:40;;;;;;;;;;;;;;;;;;5046283;28;1187;-80
2022/05/21 02:20:06;;;;;;;;;;;;;;;;;;5048146;28;1955;-80
2022/05/21 02:22:32;;;;;;;;;;;;;;;;;;5060469;28;850;-81
2022/05/21 02:24:57;;;;;;;;;;;;;;;;;;5045316;28;1378;-80
2022/05/21 02:27:22;;;;;;;;;;;;;;;;;;5048260;28;1384;-79
2022/05/21 02:29:48;;;;;;;;;;;;;;;;;;5065259;28;1158;-81
2022/05/21 02:32:14;;;;;;;;;;;;;;;;;;5057061;28;1287;-81
2022/05/21 02:34:43;;;;;;;;;;;;;;;;;;5055078;28;1355;-81
2022/05/21 02:39:53;;;;;;;;;;;;;;;;;;5084135;28;1889;-80
2022/05/21 02:45:03;;;;;;;;;;;;;;;;;;5071972;28;1080;-80
2022/05/21 02:47:28;;;;;;;;;;;;;;;;;;5050464;28;1363;-81
2022/05/21 02:49:54;;;;;;;;;;;;;;;;;;5068305;28;823;-80
2022/05/21 02:52:19;;;;;;;;;;;;;;;;;;5064643;28;977;-81
2022/05/21 02:54:44;;;;;;;;;;;;;;;;;;5048060;28;1211;-81
2022/05/21 02:57:10;;;;;;;;;;;;;;;;;;5067462;28;795;-81
2022/05/21 02:59:36;;;;;;;;;;;;;;;;;;5050556;28;1952;-80
2022/05/21 03:02:01;;;;;;;;;;;;;;;;;;5065973;28;811;-80
2022/05/21 03:04:26;;;;;;;;;;;;;;;;;;5050486;28;1192;-80
2022/05/21 03:06:52;;;;;;;;;;;;;;;;;;5051529;28;1205;-82
2022/05/21 03:12:02;;;;;;;;;;;;;;;;;;5088302;28;1065;-82
2022/05/21 03:14:27;;;;;;;;;;;;;;;;;;5053515;28;1302;-82
2022/05/21 03:16:59;;;;;;;;;;;;;;;;;;5064285;28;1162;-81
2022/05/21 03:19:24;;;;;;;;;;;;;;;;;;5060134;28;1910;-82
2022/05/21 03:21:50;;;;;;;;;;;;;;;;;;5057058;28;1307;-80
2022/05/21 03:24:15;;;;;;;;;;;;;;;;;;5068088;28;892;-81
2022/05/21 03:26:40;;;;;;;;;;;;;;;;;;5053666;28;1267;-79
2022/05/21 03:29:05;;;;;;;;;;;;;;;;;;5052217;28;1199;-82
2022/05/21 03:31:34;;;;;;;;;;;;;;;;;;5072132;28;1271;-81
2022/05/21 03:33:59;;;;;;;;;;;;;;;;;;5072810;28;881;-82
2022/05/21 03:36:24;;;;;;;;;;;;;;;;;;5090891;28;830;-81
2022/05/21 03:38:50;;;;;;;;;;;;;;;;;;5051664;28;1955;-79
2022/05/21 03:41:16;;;;;;;;;;;;;;;;;;5073611;28;1230;-82
2022/05/21 03:43:41;;;;;;;;;;;;;;;;;;5091337;28;1084;-81
2022/05/21 03:46:06;;;;;;;;;;;;;;;;;;5047403;28;1155;-81
2022/05/21 03:48:32;;;;;;;;;;;;;;;;;;5058059;28;1113;-81
2022/05/21 03:51:03;;;;;;;;;;;;;;;;;;5069140;28;1176;-81
2022/05/21 03:53:29;;;;;;;;;;;;;;;;;;5048212;28;1231;-80
2022/05/21 03:55:55;;;;;;;;;;;;;;;;;;5069086;28;815;-79
2022/05/21 03:58:21;;;;;;;;;;;;;;;;;;5052110;28;1948;-79
2022/05/21 04:00:50;;;;;;;;;;;;;;;;;;5051962;28;1181;-80
2022/05/21 04:03:15;;;;;;;;;;;;;;;;;;5070128;28;842;-79
2022/05/21 04:05:41;;;;;;;;;;;;;;;;;;5071293;28;949;-80
2022/05/21 04:08:06;;;;;;;;;;;;;;;;;;5064562;28;928;-80
2022/05/21 04:10:32;;;;;;;;;;;;;;;;;;5051036;28;1343;-81
2022/05/21 04:12:57;;;;;;;;;;;;;;;;;;5051495;28;1216;-80
2022/05/21 04:15:22;;;;;;;;;;;;;;;;;;5053383;28;1319;-80
2022/05/21 04:17:52;;;;;;;;;;;;;;;;;;5069606;28;818;-82
2022/05/21 04:20:17;;;;;;;;;;;;;;;;;;5052520;28;1965;-81
2022/05/21 04:22:43;;;;;;;;;;;;;;;;;;5052836;28;1311;-81
2022/05/21 04:25:08;;;;;;;;;;;;;;;;;;5079539;28;1172;-82
2022/05/21 04:27:34;;;;;;;;;;;;;;;;;;5054720;28;1300;-80
2022/05/21 04:30:00;;;;;;;;;;;;;;;;;;5089143;28;1124;-80
2022/05/21 04:32:25;;;;;;;;;;;;;;;;;;5066039;28;1200;-82
2022/05/21 04:34:50;;;;;;;;;;;;;;;;;;5073435;28;1221;-80
2022/05/21 04:37:16;;;;;;;;;;;;;;;;;;5067722;28;1151;-81
2022/05/21 04:39:41;;;;;;;;;;;;;;;;;;5053818;28;1943;-80
2022/05/21 04:42:06;;;;;;;;;;;;;;;;;;5052690;28;1447;-81
2022/05/21 04:44:34;;;;;;;;;;;;;;;;;;5075769;28;1232;-79
2022/05/21 04:46:59;;;;;;;;;;;;;;;;;;5051759;28;1109;-79
2022/05/21 04:49:24;;;;;;;;;;;;;;;;;;5070852;28;1192;-79
2022/05/21 04:51:53;;;;;;;;;;;;;;;;;;5081800;28;1100;-82
2022/05/21 04:54:18;;;;;;;;;;;;;;;;;;5050476;28;1175;-81
2022/05/21 04:56:43;;;;;;;;;;;;;;;;;;5051081;28;1184;-80
2022/05/21 04:59:09;;;;;;;;;;;;;;;;;;5066772;28;1897;-80
2022/05/21 05:01:35;;;;;;;;;;;;;;;;;;5047738;28;1278;-80
2022/05/21 05:04:00;;;;;;;;;;;;;;;;;;5045736;28;1307;-80
2022/05/21 05:06:25;;;;;;;;;;;;;;;;;;5044675;28;1189;-81
2022/05/21 05:08:54;;;;;;;;;;;;;;;;;;5043424;28;1228;-79
2022/05/21 05:11:19;;;;;;;;;;;;;;;;;;5047583;28;1362;-79
2022/05/21 05:13:45;;;;;;;;;;;;;;;;;;5047316;28;1089;-83
2022/05/21 05:16:10;;;;;;;;;;;;;;;;;;5045678;28;1197;-80
2022/05/21 05:18:35;;;;;;;;;;;;;;;;;;5046676;28;1918;-82
2022/05/21 05:21:03;;;;;;;;;;;;;;;;;;5046601;28;1330;-79
2022/05/21 05:23:28;;;;;;;;;;;;;;;;;;5043318;28;1247;-81
2022/05/21 05:25:59;;;;;;;;;;;;;;;;;;5047403;28;1265;-80
2022/05/21 05:28:25;;;;;;;;;;;;;;;;;;5047356;28;1172;-80
2022/05/21 05:30:59;;;;;;;;;;;;;;;;;;5049307;28;1186;-80
2022/05/21 05:33:26;;;;;;;;;;;;;;;;;;5064538;28;1135;-81
2022/05/21 05:36:09;;;;;;;;;;;;;;;;;;5048644;28;1335;-80
2022/05/21 05:38:35;;;;;;;;;;;;;;;;;;5046274;28;1947;-81
2022/05/21 05:41:01;;;;;;;;;;;;;;;;;;5048187;28;892;-80
2022/05/21 05:43:26;;;;;;;;;;;;;;;;;;5048145;28;1401;-80
2022/05/21 05:45:58;;;;;;;;;;;;;;;;;;5048605;28;1243;-80
2022/05/21 05:48:24;;;;;;;;;;;;;;;;;;5047941;28;1127;-81
2022/05/21 05:50:49;;;;;;;;;;;;;;;;;;5065201;28;1437;-79
2022/05/21 05:53:24;;;;;;;;;;;;;;;;;;5043488;28;803;-82
2022/05/21 05:55:49;;;;;;;;;;;;;;;;;;5047758;28;1334;-79
2022/05/21 06:00:58;;;;;;;;;;;;;;;;;;5071097;28;1243;-80
2022/05/21 06:03:24;;;;;;;;;;;;;;;;;;5056078;28;1211;-79
2022/05/21 06:05:50;;;;;;;;;;;;;;;;;;5068512;28;1219;-80
2022/05/21 06:08:19;;;;;;;;;;;;;;;;;;5051660;28;1232;-81
2022/05/21 06:10:48;;;;;;;;;;;;;;;;;;5050334;28;1267;-79
2022/05/21 06:13:16;;;;;;;;;;;;;;;;;;5045794;28;1220;-81
2022/05/21 06:15:42;;;;;;;;;;;;;;;;;;5047832;28;1180;-80
2022/05/21 06:18:09;;;;;;;;;;;;;;;;;;5043160;28;1191;-79
2022/05/21 06:20:34;;;;;;;;;;;;;;;;;;5047085;28;1984;-79
2022/05/21 06:23:00;;;;;;;;;;;;;;;;;;5043230;28;1265;-79
2022/05/21 06:25:26;;;;;;;;;;;;;;;;;;5047080;28;1311;-77
2022/05/21 06:27:52;;;;;;;;;;;;;;;;;;5046865;28;1200;-83
2022/05/21 06:30:18;;;;;;;;;;;;;;;;;;5047579;28;862;-78
2022/05/21 06:32:43;;;;;;;;;;;;;;;;;;5047210;28;827;-79
2022/05/21 06:35:09;;;;;;;;;;;;;;;;;;5044252;28;1164;-83
2022/05/21 06:37:35;;;;;;;;;;;;;;;;;;5043704;28;1224;-79
2022/05/21 06:40:05;;;;;;;;;;;;;;;;;;5068277;28;1898;-79
2022/05/21 06:42:30;;;;;;;;;;;;;;;;;;5064527;28;1212;-79
2022/05/21 06:44:56;;;;;;;;;;;;;;;;;;5053547;28;1210;-81
2022/05/21 06:47:21;;;;;;;;;;;;;;;;;;5059538;28;1175;-81
2022/05/21 06:49:47;;;;;;;;;;;;;;;;;;5051622;28;1290;-78
2022/05/21 06:52:12;;;;;;;;;;;;;;;;;;5063139;28;1256;-78
2022/05/21 06:54:37;;;;;;;;;;;;;;;;;;5051138;28;1199;-78
2022/05/21 06:57:08;;;;;;;;;;;;;;;;;;5056115;28;1192;-80
2022/05/21 06:59:33;;;;;;;;;;;;;;;;;;5046131;28;1925;-80
2022/05/21 07:02:05;;;;;;;;;;;;;;;;;;5063924;28;1250;-79
2022/05/21 07:07:32;;;;;;;;;;;;;;;;;;5058743;28;1039;-80
2022/05/21 07:09:58;;;;;;;;;;;;;;;;;;5054902;28;1337;-79
2022/05/21 07:12:23;;;;;;;;;;;;;;;;;;5064577;28;1224;-80
2022/05/21 07:14:49;;;;;;;;;;;;;;;;;;5068000;28;1152;-82
2022/05/21 07:17:17;;;;;;;;;;;;;;;;;;5033494;28;1265;-78
2022/05/21 07:19:42;;;;;;;;;;;;;;;;;;5047557;28;1981;-79
2022/05/21 07:22:08;;;;;;;;;;;;;;;;;;5051471;28;1306;-80
2022/05/21 07:24:33;;;;;;;;;;;;;;;;;;5065075;28;1295;-81
2022/05/21 07:27:00;;;;;;;;;;;;;;;;;;5041979;28;1262;-80
2022/05/21 07:29:25;;;;;;;;;;;;;;;;;;5064339;28;1117;-79
2022/05/21 07:31:50;;;;;;;;;;;;;;;;;;5080453;28;1173;-79
2022/05/21 07:34:15;;;;;;;;;;;;;;;;;;5048130;28;1424;-79
2022/05/21 07:36:44;;;;;;;;;;;;;;;;;;5056904;28;1187;-79
2022/05/21 07:39:10;;;;;;;;;;;;;;;;;;5049960;28;1917;-77
2022/05/21 07:41:35;;;;;;;;;;;;;;;;;;5051221;28;1214;-78
2022/05/21 07:44:00;;;;;;;;;;;;;;;;;;5067423;28;1262;-79
2022/05/21 07:46:25;;;;;;;;;;;;;;;;;;5065573;28;930;-77
2022/05/21 07:48:51;;;;;;;;;;;;;;;;;;5066868;28;851;-80
2022/05/21 07:51:16;;;;;;;;;;;;;;;;;;5062435;28;909;-78
2022/05/21 07:53:42;;;;;;;;;;;;;;;;;;5045728;28;1263;-79
2022/05/21 07:56:11;;;;;;;;;;;;;;;;;;5066422;28;795;-79
2022/05/21 07:58:36;;;;;;;;;;;;;;;;;;5062631;28;1943;-77
2022/05/21 08:01:02;;;;;;;;;;;;;;;;;;5043796;28;1337;-78
2022/05/21 08:03:28;;;;;;;;;;;;;;;;;;5041039;28;1123;-77
2022/05/21 08:06:03;;;;;;;;;;;;;;;;;;5045174;28;1320;-78
2022/05/21 08:08:29;;;;;;;;;;;;;;;;;;5037342;28;1296;-76
2022/05/21 08:10:54;;;;;;;;;;;;;;;;;;5044447;28;1290;-76
2022/05/21 08:13:19;;;;;;;;;;;;;;;;;;5043825;28;724;-77
2022/05/21 08:15:45;;;;;;;;;;;;;;;;;;5042377;28;1354;-77
2022/05/21 08:18:11;;;;;;;;;;;;;;;;;;5044012;28;1349;-77
2022/05/21 08:20:37;;;;;;;;;;;;;;;;;;5046799;28;1969;-76
2022/05/21 08:28:32;;;;;;;;;;;;;;;;;;5047742;28;985;-78
2022/05/21 08:30:58;;;;;;;;;;;;;;;;;;5048423;28;1265;-79
2022/05/21 08:33:23;;;;;;;;;;;;;;;;;;5044033;28;1268;-78
2022/05/21 08:35:50;;;;;;;;;;;;;;;;;;5047572;28;1329;-79
2022/05/21 08:38:20;;;;;;;;;;;;;;;;;;5042461;28;1396;-81
2022/05/21 08:41:14;;;;;;;;;;;;;;;;;;5045829;28;1270;-79
2022/05/21 08:43:55;;;;;;;;;;;;;;;;;;5046541;28;1486;-79
2022/05/21 08:46:26;;;;;;;;;;;;;;;;;;5047457;28;1251;-79
2022/05/21 08:49:03;;;;;;;;;;;;;;;;;;5046817;28;1313;-79
2022/05/21 08:51:37;;;;;;;;;;;;;;;;;;5041631;28;1288;-79
2022/05/21 08:54:03;;;;;;;;;;;;;;;;;;5043886;28;1283;-78
2022/05/21 08:56:29;;;;;;;;;;;;;;;;;;5045095;28;1308;-79
2022/05/21 08:59:01;;;;;;;;;;;;;;;;;;5045188;28;1955;-79
2022/05/21 09:01:27;;;;;;;;;;;;;;;;;;5067661;28;1325;-78
2022/05/21 09:03:54;;;;;;;;;;;;;;;;;;5051121;28;1190;-78
2022/05/21 09:06:39;;;;;;;;;;;;;;;;;;5048197;28;1303;-81
2022/05/21 09:09:23;;;;;;;;;;;;;;;;;;5048941;28;1195;-79
2022/05/21 09:11:49;;;;;;;;;;;;;;;;;;5051058;28;1345;-79
2022/05/21 09:14:31;;;;;;;;;;;;;;;;;;5047737;28;1364;-80
2022/05/21 09:16:57;;;;;;;;;;;;;;;;;;5048584;28;1180;-79
2022/05/21 09:19:39;;;;;;;;;;;;;;;;;;5064612;28;1973;-78
2022/05/21 09:22:04;;;;;;;;;;;;;;;;;;5064459;28;842;-78
2022/05/21 09:24:32;;;;;;;;;;;;;;;;;;5066611;28;872;-78
2022/05/21 09:26:57;;;;;;;;;;;;;;;;;;5048530;28;1223;-78
2022/05/21 09:29:27;;;;;;;;;;;;;;;;;;5065245;28;1175;-78
2022/05/21 09:31:54;;;;;;;;;;;;;;;;;;5062904;28;1315;-79
2022/05/21 09:34:24;;;;;;;;;;;;;;;;;;5048356;28;1400;-78
2022/05/21 09:36:50;;;;;;;;;;;;;;;;;;5043134;28;1232;-78
2022/05/21 09:39:29;;;;;;;;;;;;;;;;;;5048702;28;1918;-79
2022/05/21 09:45:21;;;;;;;;;;;;;;;;;;5062388;28;1331;-78
2022/05/21 09:47:45;;;;;;;;;;;;;;;;;;5087686;28;1223;-76
2022/05/21 09:50:11;;;;;;;;;;;;;;;;;;5068505;28;1307;-76
2022/05/21 09:52:36;;;;;;;;;;;;;;;;;;5076747;28;1145;-76
2022/05/21 09:55:03;;;;;;;;;;;;;;;;;;5053068;28;1140;-79
2022/05/21 09:57:37;;;;;;;;;;;;;;;;;;5044803;28;1374;-77
2022/05/21 10:00:11;;;;;;;;;;;;;;;;;;5049758;28;1963;-79
2022/05/21 10:02:46;;;;;;;;;;;;;;;;;;5046489;28;1130;-77
2022/05/21 10:05:35;;;;;;;;;;;;;;;;;;5048179;28;1342;-78
2022/05/21 10:10:58;;;;;;;;;;;;;;;;;;5050016;28;593;-78
2022/05/21 10:13:24;;;;;;;;;;;;;;;;;;5048509;28;1013;-78
2022/05/21 10:16:19;;;;;;;;;;;;;;;;;;5048003;28;1315;-78
2022/05/21 10:18:49;;;;;;;;;;;;;;;;;;5018340;28;1934;-79
2022/05/21 10:21:20;;;;;;;;;;;;;;;;;;5050664;28;1187;-78
2022/05/21 10:23:49;;;;;;;;;;;;;;;;;;5066402;28;1129;-77
2022/05/21 10:26:14;;;;;;;;;;;;;;;;;;5069725;28;1153;-74
2022/05/21 10:28:53;;;;;;;;;;;;;;;;;;5049377;28;1198;-74
2022/05/21 10:31:36;;;;;;;;;;;;;;;;;;5074605;28;1306;-79
2022/05/21 10:34:04;;;;;;;;;;;;;;;;;;5068542;28;1318;-75
2022/05/21 10:36:57;;;;;;;;;;;;;;;;;;5084952;28;1105;-80
2022/05/21 10:39:34;;;;;;;;;;;;;;;;;;5055355;28;1918;-78
2022/05/21 10:42:24;;;;;;;;;;;;;;;;;;5068622;28;1378;-80
2022/05/21 10:44:55;;;;;;;;;;;;;;;;;;5068565;28;1260;-79
2022/05/21 10:47:27;;;;;;;;;;;;;;;;;;5066066;28;1307;-78
2022/05/21 10:50:01;;;;;;;;;;;;;;;;;;5083164;28;1165;-76
2022/05/21 10:52:45;;;;;;;;;;;;;;;;;;5060912;28;1199;-81
2022/05/21 10:55:23;;;;;;;;;;;;;;;;;;5068432;28;1184;-79
2022/05/21 10:58:09;;;;;;;;;;;;;;;;;;5067873;28;1220;-77
2022/05/21 11:00:45;;;;;;;;;;;;;;;;;;5067010;28;1894;-77
2022/05/21 11:03:25;;;;;;;;;;;;;;;;;;5086096;28;1207;-76
2022/05/21 11:05:57;;;;;;;;;;;;;;;;;;5058478;28;1172;-75
2022/05/21 11:08:28;;;;;;;;;;;;;;;;;;5058801;28;1229;-78
2022/05/21 11:11:13;;;;;;;;;;;;;;;;;;5050485;28;1271;-77
2022/05/21 11:14:08;;;;;;;;;;;;;;;;;;5064468;28;1049;-77
2022/05/21 11:16:54;;;;;;;;;;;;;;;;;;5028929;28;1340;-77
2022/05/21 11:19:23;;;;;;;;;;;;;;;;;;5078500;28;1933;-75
2022/05/21 11:22:02;;;;;;;;;;;;;;;;;;5049555;28;1216;-77
2022/05/21 11:24:50;;;;;;;;;;;;;;;;;;5064393;28;1255;-77
2022/05/21 11:27:23;;;;;;;;;;;;;;;;;;5074497;28;1164;-78
2022/05/21 11:29:54;;;;;;;;;;;;;;;;;;5062255;28;1275;-79
2022/05/21 11:38:10;;;;;;;;;;;;;;;;;;5072318;28;1037;-77
2022/05/21 11:40:51;;;;;;;;;;;;;;;;;;5075793;28;1898;-78
2022/05/21 11:43:17;;;;;;;;;;;;;;;;;;5053178;28;1294;-78
2022/05/21 11:45:57;;;;;;;;;;;;;;;;;;5051957;28;1191;-78
2022/05/21 11:48:29;;;;;;;;;;;;;;;;;;5080206;28;1058;-80
2022/05/21 11:51:14;;;;;;;;;;;;;;;;;;5059291;28;1316;-79
2022/05/21 11:53:40;;;;;;;;;;;;;;;;;;5075813;28;1148;-80
2022/05/21 11:56:10;;;;;;;;;;;;;;;;;;5070793;28;1382;-80
2022/05/21 11:58:54;;;;;;;;;;;;;;;;;;5052228;28;1929;-77
2022/05/21 12:01:38;;;;;;;;;;;;;;;;;;5055034;28;1354;-80
2022/05/21 12:04:04;;;;;;;;;;;;;;;;;;5052506;28;1342;-82
2022/05/21 12:06:33;;;;;;;;;;;;;;;;;;5052302;28;1353;-80
2022/05/21 12:09:22;;;;;;;;;;;;;;;;;;5067646;28;1243;-80
2022/05/21 12:11:47;;;;;;;;;;;;;;;;;;5083235;28;1196;-81
2022/05/21 12:14:15;;;;;;;;;;;;;;;;;;5072270;28;1185;-80
2022/05/21 12:16:43;;;;;;;;;;;;;;;;;;5069575;28;1208;-79
2022/05/21 12:19:08;;;;;;;;;;;;;;;;;;5070216;28;1930;-81
2022/05/21 12:21:44;;;;;;;;;;;;;;;;;;5064865;28;1283;-82
2022/05/21 12:24:29;;;;;;;;;;;;;;;;;;5060708;28;1179;-82
2022/05/21 12:27:21;;;;;;;;;;;;;;;;;;5046235;28;1321;-81
2022/05/21 12:29:47;;;;;;;;;;;;;;;;;;5071862;28;1255;-80
2022/05/21 12:32:14;;;;;;;;;;;;;;;;;;5088601;28;1140;-78
2022/05/21 12:34:58;;;;;;;;;;;;;;;;;;5081986;28;1140;-79
2022/05/21 12:37:36;;;;;;;;;;;;;;;;;;;;;
2022/05/21 12:40:04;;;;;;;;;;;;;;;;;;5073828;28;1890;-78
2022/05/21 12:42:48;;;;;;;;;;;;;;;;;;5052653;28;1199;-74
2022/05/21 12:45:29;;;;;;;;;;;;;;;;;;5087475;28;1256;-80
2022/05/21 12:48:03;;;;;;;;;;;;;;;;;;5071037;28;1291;-80
2022/05/21 12:50:35;;;;;;;;;;;;;;;;;;5084389;28;1337;-81
2022/05/21 12:53:01;;;;;;;;;;;;;;;;;;5067153;28;1160;-80
2022/05/21 12:55:33;;;;;;;;;;;;;;;;;;5064251;28;1066;-79
2022/05/21 12:58:15;;;;;;;;;;;;;;;;;;5070139;28;1235;-79
2022/05/21 13:00:46;;;;;;;;;;;;;;;;;;5069835;28;1970;-80
2022/05/21 13:03:18;;;;;;;;;;;;;;;;;;5076839;28;1116;-79
2022/05/21 13:05:56;;;;;;;;;;;;;;;;;;5065679;28;1330;-79
2022/05/21 13:08:22;;;;;;;;;;;;;;;;;;5049106;28;1200;-79
2022/05/21 13:10:55;;;;;;;;;;;;;;;;;;5087834;28;1077;-80
2022/05/21 13:13:22;;;;;;;;;;;;;;;;;;5087511;28;1180;-80
2022/05/21 13:15:52;;;;;;;;;;;;;;;;;;5087055;28;1499;-79
2022/05/21 13:18:53;;;;;;;;;;;;;;;;;;5054784;28;1441;-80
2022/05/21 13:21:19;;;;;;;;;;;;;;;;;;4985314;28;1409;-80
2022/05/21 13:24:00;;;;;;;;;;;;;;;;;;5030160;28;1349;-79
2022/05/21 13:26:31;;;;;;;;;;;;;;;;;;5069866;28;1350;-81
2022/05/21 13:29:15;;;;;;;;;;;;;;;;;;5068518;28;1360;-80
2022/05/21 13:31:41;;;;;;;;;;;;;;;;;;5053299;28;1265;-81
2022/05/21 13:34:06;;;;;;;;;;;;;;;;;;5049876;28;1160;-82
2022/05/21 13:36:37;;;;;;;;;;;;;;;;;;5045085;28;1311;-79
2022/05/21 13:39:03;;;;;;;;;;;;;;;;;;5046054;28;1988;-78
2022/05/21 13:41:31;;;;;;;;;;;;;;;;;;5067432;28;1153;-80
2022/05/21 13:43:58;;;;;;;;;;;;;;;;;;5047864;28;1388;-81
2022/05/21 13:46:27;;;;;;;;;;;;;;;;;;5053038;28;1285;-80
2022/05/21 13:48:55;;;;;;;;;;;;;;;;;;5066690;28;1328;-81
2022/05/21 13:51:22;;;;;;;;;;;;;;;;;;5066532;28;1310;-79
2022/05/21 13:53:50;;;;;;;;;;;;;;;;;;5059697;28;1366;-80
2022/05/21 13:56:31;;;;;;;;;;;;;;;;;;5052406;28;1196;-81
2022/05/21 13:59:12;;;;;;;;;;;;;;;;;;5066805;28;1945;-78
2022/05/21 14:01:38;;;;;;;;;;;;;;;;;;5049889;28;1219;-79
2022/05/21 14:04:08;;;;;;;;;;;;;;;;;;5031621;28;1243;-81
2022/05/21 14:06:40;;;;;;;;;;;;;;;;;;5060218;28;1273;-79
2022/05/21 14:09:05;;;;;;;;;;;;;;;;;;5045809;28;1236;-79
2022/05/21 14:11:31;;;;;;;;;;;;;;;;;;5027438;28;890;-78
2022/05/21 14:13:59;;;;;;;;;;;;;;;;;;5024216;28;1194;-79
2022/05/21 14:16:32;;;;;;;;;;;;;;;;;;5026319;28;1263;-80
2022/05/21 14:19:05;;;;;;;;;;;;;;;;;;5023987;28;1906;-79
2022/05/21 14:21:33;;;;;;;;;;;;;;;;;;5025418;28;827;-79
2022/05/21 14:24:16;;;;;;;;;;;;;;;;;;5021797;28;1229;-79
2022/05/21 14:27:14;;;;;;;;;;;;;;;;;;5024352;28;1243;-81
2022/05/21 14:29:40;;;;;;;;;;;;;;;;;;5012728;28;1611;-79
2022/05/21 14:32:15;;;;;;;;;;;;;;;;;;5024921;28;1026;-80
2022/05/21 14:34:41;;;;;;;;;;;;;;;;;;5038020;28;1160;-81
2022/05/21 14:37:19;;;;;;;;;;;;;;;;;;5052968;28;1219;-82
2022/05/21 14:39:45;;;;;;;;;;;;;;;;;;5064951;28;1894;-85
2022/05/21 14:42:10;;;;;;;;;;;;;;;;;;5068730;28;1327;-80
2022/05/21 14:44:35;;;;;;;;;;;;;;;;;;5057948;28;1201;-75
2022/05/21 14:49:44;;;;;;;;;;;;;;;;;;5043693;28;1048;-75
2022/05/21 14:54:57;;;;;;;;;;;;;;;;;;5042331;28;1100;-79
2022/05/21 14:57:22;;;;;;;;;;;;;;;;;;5045678;28;1172;-82
2022/05/21 14:59:48;;;;;;;;;;;;;;;;;;5034380;28;1952;-80
2022/05/21 15:02:13;;;;;;;;;;;;;;;;;;5055464;28;1171;-82
2022/05/21 15:04:48;;;;;;;;;;;;;;;;;;5047634;28;1050;-81
2022/05/21 15:07:21;;;;;;;;;;;;;;;;;;5031603;28;1141;-82
2022/05/21 15:09:48;;;;;;;;;;;;;;;;;;5044496;28;1294;-82
2022/05/21 15:12:14;;;;;;;;;;;;;;;;;;5056629;28;1253;-83
2022/05/21 15:14:46;;;;;;;;;;;;;;;;;;5035396;28;1176;-84
2022/05/21 15:17:11;;;;;;;;;;;;;;;;;;5009526;28;1331;-77
2022/05/21 15:19:37;;;;;;;;;;;;;;;;;;5033975;28;1909;-78
2022/05/21 15:22:07;;;;;;;;;;;;;;;;;;5058739;28;1173;-78
2022/05/21 15:24:33;;;;;;;;;;;;;;;;;;5054007;28;1144;-78
2022/05/21 15:26:59;;;;;;;;;;;;;;;;;;5027620;28;1229;-76
2022/05/21 15:29:24;;;;;;;;;;;;;;;;;;5055306;28;1156;-77
2022/05/21 15:31:49;;;;;;;;;;;;;;;;;;5041500;28;1366;-79
2022/05/21 15:34:14;;;;;;;;;;;;;;;;;;5047540;28;1180;-78
2022/05/21 15:36:47;;;;;;;;;;;;;;;;;;5009400;28;1201;-78
2022/05/21 15:39:12;;;;;;;;;;;;;;;;;;5015379;28;1944;-78
2022/05/21 15:41:38;;;;;;;;;;;;;;;;;;5025144;28;1321;-77
2022/05/21 15:44:03;;;;;;;;;;;;;;;;;;5047878;28;1189;-78
2022/05/21 15:46:29;;;;;;;;;;;;;;;;;;5033055;28;1300;-80
2022/05/21 15:48:54;;;;;;;;;;;;;;;;;;5054527;28;1144;-77
2022/05/21 15:51:21;;;;;;;;;;;;;;;;;;5048111;28;1129;-78
2022/05/21 15:53:51;;;;;;;;;;;;;;;;;;5061279;28;1155;-78
2022/05/21 15:56:17;;;;;;;;;;;;;;;;;;5065620;28;1056;-78
2022/05/21 15:58:47;;;;;;;;;;;;;;;;;;5044610;28;1886;-78
2022/05/21 16:01:20;;;;;;;;;;;;;;;;;;5035393;28;1221;-77
2022/05/21 16:03:54;;;;;;;;;;;;;;;;;;5046367;28;1351;-77
2022/05/21 16:06:21;;;;;;;;;;;;;;;;;;5061969;28;1469;-77
2022/05/21 16:08:52;;;;;;;;;;;;;;;;;;5055418;28;1272;-77
2022/05/21 16:11:22;;;;;;;;;;;;;;;;;;5049342;28;1326;-79
2022/05/21 16:13:51;;;;;;;;;;;;;;;;;;5053431;28;1129;-77
2022/05/21 16:16:25;;;;;;;;;;;;;;;;;;5051796;28;1214;-78
2022/05/21 16:18:53;;;;;;;;;;;;;;;;;;5057477;28;1895;-82
2022/05/21 16:21:20;;;;;;;;;;;;;;;;;;5051681;28;1340;-82
2022/05/21 16:23:45;;;;;;;;;;;;;;;;;;5050290;28;1180;-81
2022/05/21 16:26:11;;;;;;;;;;;;;;;;;;5062802;28;1100;-82
2022/05/21 16:28:37;;;;;;;;;;;;;;;;;;5048082;28;1292;-82
2022/05/21 16:31:03;;;;;;;;;;;;;;;;;;5056883;28;1309;-82
2022/05/21 16:33:29;;;;;;;;;;;;;;;;;;5054885;28;1228;-82
2022/05/21 16:35:59;;;;;;;;;;;;;;;;;;5051204;28;1173;-83
2022/05/21 16:38:25;;;;;;;;;;;;;;;;;;5041019;28;1197;-79
2022/05/21 16:40:54;;;;;;;;;;;;;;;;;;5046462;28;1863;-80
2022/05/21 16:43:20;;;;;;;;;;;;;;;;;;5056919;28;1267;-84
2022/05/21 16:45:46;;;;;;;;;;;;;;;;;;5068664;28;1335;-84
2022/05/21 16:48:19;;;;;;;;;;;;;;;;;;5056671;28;1333;-74
2022/05/21 16:50:45;;;;;;;;;;;;;;;;;;5047870;28;1156;-75
2022/05/21 16:53:11;;;;;;;;;;;;;;;;;;5044550;28;1061;-74
2022/05/21 16:55:36;;;;;;;;;;;;;;;;;;5043607;28;1244;-75
2022/05/21 16:58:03;;;;;;;;;;;;;;;;;;5045449;28;1121;-74
2022/05/21 17:00:30;;;;;;;;;;;;;;;;;;5056140;28;1894;-74
2022/05/21 17:02:55;;;;;;;;;;;;;;;;;;5052315;28;1153;-74
2022/05/21 17:05:21;;;;;;;;;;;;;;;;;;5049696;28;1220;-83
2022/05/21 17:07:47;;;;;;;;;;;;;;;;;;5043957;28;1274;-85
2022/05/21 17:10:13;;;;;;;;;;;;;;;;;;5010371;28;1401;-83
2022/05/21 17:12:42;;;;;;;;;;;;;;;;;;5018393;28;1330;-84
2022/05/21 17:15:08;;;;;;;;;;;;;;;;;;5044567;28;1033;-84
2022/05/21 17:17:34;;;;;;;;;;;;;;;;;;5061466;28;1145;-83
2022/05/21 17:20:03;;;;;;;;;;;;;;;;;;5046923;28;1985;-84
2022/05/21 17:22:29;;;;;;;;;;;;;;;;;;5030620;28;1203;-84
2022/05/21 17:24:59;;;;;;;;;;;;;;;;;;5053945;28;1319;-84
2022/05/21 17:33:01;;;;;;;;;;;;;;;;;;5060185;28;1040;-85
2022/05/21 17:35:31;;;;;;;;;;;;;;;;;;5044374;28;1520;-84
2022/05/21 17:37:59;;;;;;;;;;;;;;;;;;5036573;28;1227;-82
2022/05/21 17:40:25;;;;;;;;;;;;;;;;;;5046327;28;1889;-83
2022/05/21 17:42:50;;;;;;;;;;;;;;;;;;5060390;28;1423;-82
2022/05/21 17:45:17;;;;;;;;;;;;;;;;;;5031032;28;1402;-83
2022/05/21 17:47:43;;;;;;;;;;;;;;;;;;5045427;28;1325;-84
2022/05/21 17:50:10;;;;;;;;;;;;;;;;;;5054788;28;1222;-84
2022/05/21 17:52:35;;;;;;;;;;;;;;;;;;5062503;28;1413;-83
2022/05/21 17:55:01;;;;;;;;;;;;;;;;;;5044048;28;1287;-84
2022/05/21 17:57:27;;;;;;;;;;;;;;;;;;5048739;28;1152;-83
2022/05/21 17:59:52;;;;;;;;;;;;;;;;;;5055041;28;1940;-83
2022/05/21 18:02:17;;;;;;;;;;;;;;;;;;5049477;28;1377;-83
2022/05/21 18:04:43;;;;;;;;;;;;;;;;;;5062591;28;1299;-82
2022/05/21 18:07:11;;;;;;;;;;;;;;;;;;5049583;28;1370;-82
2022/05/21 18:09:36;;;;;;;;;;;;;;;;;;5061944;28;1227;-83